Time;durP1;ratioP1;P1;durP2;ratioP2;P2;SDS_P1;SDS_P2;PMS_P1;PMS_P2;Temp;Humidity;BMP_temperature;BMP_pressure;BME280_temperature;BME280_humidity;BME280_pressure;Samples;Min_cycle;Max_cycle;Signal;HPM_P1;HPM_P2
2022/10/20 00:01:09;;;;;;;1.92;0.85;;;;;;;4.31;83.59;98501.84;1733612;82;21921;-57
2022/10/20 00:03:36;;;;;;;1.60;0.90;;;;;;;4.28;84.15;98508.16;1733318;82;20866;-57
2022/10/20 00:06:16;;;;;;;2.10;0.90;;;;;;;4.24;84.38;98504.38;1733397;82;20984;-57
2022/10/20 00:08:43;;;;;;;2.10;0.93;;;;;;;4.21;84.74;98508.82;1733500;82;20996;-57
2022/10/20 00:11:12;;;;;;;2.12;1.00;;;;;;;4.17;85.38;98505.82;1733517;82;21418;-57
2022/10/20 00:13:42;;;;;;;3.30;1.32;;;;;;;4.14;85.99;98507.64;1733671;82;21112;-57
2022/10/20 00:16:10;;;;;;;2.47;1.00;;;;;;;4.11;86.25;98512.89;1733450;82;21416;-57
2022/10/20 00:18:37;;;;;;;1.55;0.80;;;;;;;4.10;87.16;98513.92;1733399;82;20854;-57
2022/10/20 00:21:07;;;;;;;3.00;0.88;;;;;;;4.08;87.36;98511.22;1733437;82;20925;-56
2022/10/20 00:23:34;;;;;;;2.90;0.93;;;;;;;4.05;87.92;98514.36;1733365;82;20964;-57
2022/10/20 00:26:13;;;;;;;2.62;0.90;;;;;;;4.05;88.37;98515.14;1733486;82;21121;-58
2022/10/20 00:28:42;;;;;;;0.95;0.85;;;;;;;4.06;88.84;98519.42;1733287;82;21048;-58
2022/10/20 00:31:09;;;;;;;2.85;1.27;;;;;;;4.07;89.54;98518.36;1733377;82;20936;-58
2022/10/20 00:33:35;;;;;;;2.27;1.10;;;;;;;4.10;90.31;98517.89;1733476;82;20988;-59
2022/10/20 00:36:04;;;;;;;3.40;0.90;;;;;;;4.08;90.59;98523.15;1733596;82;21491;-58
2022/10/20 00:38:31;;;;;;;3.30;1.10;;;;;;;4.03;91.20;98525.18;1733575;82;21208;-59
2022/10/20 00:41:02;;;;;;;1.87;1.00;;;;;;;4.00;91.53;98522.99;1733306;82;20901;-59
2022/10/20 00:43:49;;;;;;;4.35;1.15;;;;;;;3.97;91.77;98516.05;1697607;84;21011;-58
2022/10/20 00:46:20;;;;;;;1.80;1.20;;;;;;;3.95;92.10;98520.27;1717541;83;20894;-57
2022/10/20 00:48:54;;;;;;;2.27;1.02;;;;;;;3.92;92.56;98520.73;1717730;83;20945;-57
2022/10/20 00:51:25;;;;;;;1.60;0.98;;;;;;;3.88;92.95;98515.62;1717729;83;21762;-58
2022/10/20 00:53:53;;;;;;;2.00;1.15;;;;;;;3.84;93.27;98515.78;1717874;83;20973;-58
2022/10/20 00:56:20;;;;;;;2.55;1.00;;;;;;;3.79;93.43;98521.52;1717936;83;20898;-58
2022/10/20 00:58:46;;;;;;;4.08;1.10;;;;;;;3.76;93.46;98520.65;1717660;83;20921;-57
2022/10/20 01:01:14;;;;;;;1.87;1.40;;;;;;;3.71;93.79;98520.02;1717590;83;20949;-56
2022/10/20 01:03:45;;;;;;;1.90;1.05;;;;;;;3.67;94.44;98522.86;1691222;83;21086;-57
2022/10/20 01:06:14;;;;;;;3.62;1.20;;;;;;;3.66;94.59;98522.56;1717631;83;21089;-57
2022/10/20 01:08:41;;;;;;;1.60;1.00;;;;;;;3.65;94.89;98519.61;1717579;83;21017;-58
2022/10/20 01:11:36;;;;;;;2.80;1.27;;;;;;;3.62;94.91;98518.78;1717641;83;21456;-58
2022/10/20 01:14:33;;;;;;;1.67;1.10;;;;;;;3.59;95.10;98520.56;1717590;83;20971;-58
2022/10/20 01:17:30;;;;;;;1.60;1.07;;;;;;;3.56;95.36;98518.36;1717807;83;21195;-57
2022/10/20 01:20:35;;;;;;;7.37;1.35;;;;;;;3.56;96.00;98526.85;1717534;83;21414;-58
2022/10/20 01:23:28;;;;;;;3.37;1.30;;;;;;;3.54;95.94;98524.93;1706992;83;20962;-57
2022/10/20 01:26:18;;;;;;;2.08;1.10;;;;;;;3.51;96.35;98527.52;1717667;83;21488;-58
2022/10/20 01:29:01;;;;;;;1.50;1.00;;;;;;;3.48;96.50;98525.36;1686148;83;20961;-58
2022/10/20 01:31:33;;;;;;;2.02;0.90;;;;;;;3.48;96.56;98525.88;1717590;83;21253;-58
2022/10/20 01:34:11;;;;;;;2.65;1.07;;;;;;;3.49;96.77;98535.44;1717668;83;20871;-58
2022/10/20 01:36:52;;;;;;;2.55;1.17;;;;;;;3.49;96.88;98540.20;1717885;83;21398;-59
2022/10/20 01:39:39;;;;;;;4.20;0.88;;;;;;;3.48;96.85;98542.57;1717536;83;20953;-59
2022/10/20 01:42:10;;;;;;;4.20;1.32;;;;;;;3.49;96.71;98544.70;1716930;83;21449;-58
2022/10/20 01:44:37;;;;;;;1.22;0.88;;;;;;;3.47;96.79;98543.59;1716621;83;21195;-58
2022/10/20 01:47:05;;;;;;;2.47;1.10;;;;;;;3.43;96.76;98541.13;1692686;84;21550;-58
2022/10/20 01:49:32;;;;;;;3.33;0.95;;;;;;;3.37;96.87;98544.17;1692602;84;20998;-59
2022/10/20 01:51:59;;;;;;;1.60;1.20;;;;;;;3.34;96.78;98546.49;1692597;84;20946;-59
2022/10/20 01:54:28;;;;;;;3.75;1.00;;;;;;;3.30;96.82;98545.31;1692609;84;20972;-59
2022/10/20 01:57:09;;;;;;;3.05;0.98;;;;;;;3.28;96.83;98554.02;1692624;84;21828;-59
2022/10/20 02:00:03;;;;;;;2.08;0.90;;;;;;;3.24;96.77;98558.16;1692270;84;21010;-58
2022/10/20 02:03:01;;;;;;;1.65;0.85;;;;;;;3.20;96.79;98563.64;1692616;84;20950;-57
2022/10/20 02:05:45;;;;;;;3.10;0.95;;;;;;;3.16;96.83;98570.41;1662776;84;21456;-57
2022/10/20 02:08:47;;;;;;;2.35;0.90;;;;;;;3.13;96.78;98565.59;1692626;84;21013;-57
2022/10/20 02:11:36;;;;;;;2.87;1.00;;;;;;;3.11;96.68;98567.66;1692821;84;21446;-57
2022/10/20 02:14:05;;;;;;;1.57;1.05;;;;;;;3.06;96.70;98574.93;1692545;84;20958;-57
2022/10/20 02:16:36;;;;;;;2.87;1.07;;;;;;;3.05;96.68;98576.49;1692567;84;20949;-58
2022/10/20 02:19:04;;;;;;;2.22;1.10;;;;;;;3.02;96.64;98576.94;1692830;84;20992;-58
2022/10/20 02:21:31;;;;;;;3.25;1.20;;;;;;;2.99;96.55;98580.06;1692631;84;20994;-59
2022/10/20 02:24:02;;;;;;;4.10;1.10;;;;;;;2.97;96.51;98588.21;1692583;84;21206;-59
2022/10/20 02:26:29;;;;;;;3.35;1.10;;;;;;;2.95;96.58;98592.11;1672964;84;20922;-57
2022/10/20 02:29:00;;;;;;;1.77;0.98;;;;;;;2.93;96.49;98594.19;1692608;84;20863;-57
2022/10/20 02:31:27;;;;;;;1.72;1.00;;;;;;;2.89;96.49;98600.46;1692841;84;20890;-57
2022/10/20 02:33:55;;;;;;;1.62;1.07;;;;;;;2.86;96.46;98598.77;1692605;84;20930;-58
2022/10/20 02:36:27;;;;;;;4.65;1.10;;;;;;;2.85;96.41;98597.95;1692576;84;21299;-57
2022/10/20 02:38:54;;;;;;;2.30;1.30;;;;;;;2.82;96.44;98597.62;1692937;84;21084;-58
2022/10/20 02:41:20;;;;;;;1.27;1.00;;;;;;;2.78;96.50;98601.75;1692738;84;20870;-58
2022/10/20 02:43:47;;;;;;;2.87;0.85;;;;;;;2.72;96.45;98601.61;1692696;84;20969;-58
2022/10/20 02:46:15;;;;;;;2.02;1.00;;;;;;;2.70;96.61;98605.00;1691005;84;20930;-58
2022/10/20 02:48:42;;;;;;;2.42;0.98;;;;;;;2.69;96.63;98607.86;1668898;86;21132;-57
2022/10/20 02:51:09;;;;;;;2.42;0.90;;;;;;;2.66;96.75;98599.07;1747744;82;20881;-58
2022/10/20 02:53:36;;;;;;;1.47;1.00;;;;;;;2.65;96.70;98608.84;1747782;82;20908;-58
2022/10/20 02:56:05;;;;;;;1.67;1.00;;;;;;;2.64;96.66;98609.86;1747776;82;20932;-58
2022/10/20 02:58:33;;;;;;;3.58;1.00;;;;;;;2.61;96.64;98612.97;1747719;82;20976;-57
2022/10/20 03:00:59;;;;;;;3.67;1.07;;;;;;;2.58;96.74;98612.09;1747776;82;22115;-57
2022/10/20 03:03:28;;;;;;;1.95;1.00;;;;;;;2.57;96.88;98607.81;1747722;82;20920;-57
2022/10/20 03:05:55;;;;;;;1.80;0.90;;;;;;;2.54;96.82;98618.83;1747952;82;21503;-58
2022/10/20 03:08:22;;;;;;;2.35;1.00;;;;;;;2.50;96.90;98613.70;1747749;82;21459;-57
2022/10/20 03:10:50;;;;;;;2.67;1.22;;;;;;;2.46;97.07;98623.13;1747764;82;20880;-57
2022/10/20 03:13:17;;;;;;;1.55;0.93;;;;;;;2.43;96.95;98625.39;1747690;82;21218;-58
2022/10/20 03:15:44;;;;;;;2.08;1.00;;;;;;;2.40;97.17;98629.28;1747685;82;21036;-58
2022/10/20 03:18:11;;;;;;;1.92;1.15;;;;;;;2.41;97.08;98631.42;1747768;82;21015;-57
2022/10/20 03:20:38;;;;;;;3.15;1.20;;;;;;;2.37;97.12;98632.39;1747756;82;20869;-58
2022/10/20 03:23:05;;;;;;;2.15;1.10;;;;;;;2.35;97.10;98634.97;1747764;82;20972;-58
2022/10/20 03:25:32;;;;;;;4.15;1.30;;;;;;;2.32;97.02;98642.82;1747764;82;21026;-58
2022/10/20 03:27:59;;;;;;;2.37;1.40;;;;;;;2.25;97.28;98636.81;1747705;82;20877;-58
2022/10/20 03:30:26;;;;;;;2.08;1.07;;;;;;;2.23;97.34;98641.52;1747963;82;21395;-58
2022/10/20 03:32:54;;;;;;;2.80;1.00;;;;;;;2.22;97.47;98646.49;1747735;82;20983;-58
2022/10/20 03:35:22;;;;;;;1.47;1.00;;;;;;;2.20;97.58;98647.73;1747779;82;20983;-58
2022/10/20 03:37:48;;;;;;;2.10;0.93;;;;;;;2.18;97.51;98644.00;1747769;82;21287;-58
2022/10/20 03:40:16;;;;;;;2.95;0.90;;;;;;;2.16;97.72;98651.34;1747697;82;20916;-58
2022/10/20 03:42:43;;;;;;;2.12;1.20;;;;;;;2.14;97.83;98650.77;1747608;82;20932;-58
2022/10/20 03:45:10;;;;;;;1.15;0.88;;;;;;;2.14;97.96;98655.23;1747509;82;20932;-57
2022/10/20 03:47:37;;;;;;;1.55;1.10;;;;;;;2.13;97.94;98655.75;1740326;82;20881;-57
2022/10/20 03:50:05;;;;;;;3.30;1.52;;;;;;;2.13;98.18;98657.06;1740541;82;21432;-59
2022/10/20 03:52:32;;;;;;;10.28;4.70;;;;;;;2.12;98.23;98659.94;1740592;82;21007;-59
2022/10/20 03:54:59;;;;;;;3.98;2.17;;;;;;;2.10;98.25;98653.53;1740237;82;20926;-57
2022/10/20 03:57:26;;;;;;;3.62;1.30;;;;;;;2.08;98.42;98658.23;1740328;82;20933;-59
2022/10/20 03:59:52;;;;;;;2.12;1.15;;;;;;;2.07;98.40;98654.00;1740353;82;20944;-58
2022/10/20 04:02:36;;;;;;;2.83;1.47;;;;;;;2.04;98.35;98653.11;1740274;82;22054;-58
2022/10/20 04:05:04;;;;;;;3.72;1.30;;;;;;;2.02;98.62;98655.98;1740283;82;20941;-58
2022/10/20 04:07:32;;;;;;;1.37;1.15;;;;;;;2.00;98.72;98654.58;1740376;82;21515;-57
2022/10/20 04:10:01;;;;;;;2.87;1.25;;;;;;;1.98;98.78;98651.32;1740297;82;20921;-56
2022/10/20 04:12:28;;;;;;;4.03;1.32;;;;;;;1.95;98.77;98654.42;1740345;82;20921;-59
2022/10/20 04:14:55;;;;;;;1.52;1.30;;;;;;;1.95;99.15;98641.22;1740305;82;21106;-57
2022/10/20 04:17:23;;;;;;;2.55;1.32;;;;;;;1.91;99.26;98654.04;1740213;82;21483;-57
2022/10/20 04:19:51;;;;;;;2.40;1.32;;;;;;;1.88;99.32;98652.36;1740181;82;21537;-57
2022/10/20 04:22:18;;;;;;;1.70;1.12;;;;;;;1.86;99.48;98650.45;1740310;82;20933;-59
2022/10/20 04:24:46;;;;;;;2.17;1.15;;;;;;;1.86;99.66;98656.52;1740270;82;20882;-57
2022/10/20 04:27:12;;;;;;;2.58;1.27;;;;;;;1.86;99.52;98659.70;1740306;82;21290;-58
2022/10/20 04:29:39;;;;;;;2.95;1.55;;;;;;;1.85;99.69;98656.75;1740250;82;20921;-58
2022/10/20 04:32:06;;;;;;;3.58;1.80;;;;;;;1.86;99.72;98655.73;1740298;82;20853;-58
2022/10/20 04:34:35;;;;;;;2.95;1.57;;;;;;;1.84;99.98;98658.58;1740312;82;20940;-57
2022/10/20 04:37:02;;;;;;;3.67;1.32;;;;;;;1.85;99.95;98655.44;1740309;82;21453;-56
2022/10/20 04:39:29;;;;;;;2.98;1.25;;;;;;;1.84;99.95;98652.48;1740190;82;22066;-58
2022/10/20 04:41:56;;;;;;;7.10;1.67;;;;;;;1.81;100.00;98655.58;1740240;82;20932;-58
2022/10/20 04:44:22;;;;;;;2.42;1.40;;;;;;;1.80;100.00;98653.95;1740168;82;20976;-58
2022/10/20 04:46:49;;;;;;;5.85;1.32;;;;;;;1.79;100.00;98662.92;1747540;81;20908;-58
2022/10/20 04:49:17;;;;;;;2.05;1.27;;;;;;;1.78;100.00;98663.93;1753569;81;20896;-58
2022/10/20 04:51:44;;;;;;;4.03;1.37;;;;;;;1.76;100.00;98662.84;1753565;81;21254;-58
2022/10/20 04:54:10;;;;;;;3.52;1.65;;;;;;;1.76;100.00;98671.27;1753351;81;20908;-57
2022/10/20 04:56:39;;;;;;;3.37;1.55;;;;;;;1.77;100.00;98678.16;1753437;81;20928;-58
2022/10/20 04:59:06;;;;;;;2.58;1.42;;;;;;;1.74;100.00;98678.10;1753449;81;20905;-59
2022/10/20 05:01:34;;;;;;;3.12;1.60;;;;;;;1.75;100.00;98677.56;1758899;80;20935;-57
2022/10/20 05:04:02;;;;;;;3.75;1.50;;;;;;;1.75;100.00;98678.38;1766560;80;21147;-58
2022/10/20 05:06:30;;;;;;;2.52;1.45;;;;;;;1.77;100.00;98682.93;1763556;81;20896;-58
2022/10/20 05:09:02;;;;;;;2.67;1.50;;;;;;;1.82;100.00;98687.05;1767670;81;21029;-57
2022/10/20 05:11:30;;;;;;;1.67;1.42;;;;;;;1.85;100.00;98695.05;1726746;81;21129;-57
2022/10/20 05:13:57;;;;;;;2.47;1.50;;;;;;;1.84;100.00;98688.14;1728038;83;21580;-58
2022/10/20 05:16:24;;;;;;;3.22;1.80;;;;;;;1.85;100.00;98691.91;1716149;83;21202;-57
2022/10/20 05:18:56;;;;;;;5.75;2.92;;;;;;;1.86;100.00;98692.72;1729979;83;20951;-58
2022/10/20 05:21:27;;;;;;;3.65;2.10;;;;;;;1.86;100.00;98701.97;1751819;81;21341;-58
2022/10/20 05:23:56;;;;;;;4.45;2.45;;;;;;;1.86;100.00;98706.72;1701057;84;20994;-58
2022/10/20 05:26:25;;;;;;;7.25;2.33;;;;;;;1.90;100.00;98709.75;1730938;83;21003;-58
2022/10/20 05:28:56;;;;;;;3.30;2.08;;;;;;;1.92;100.00;98711.66;1737923;81;21267;-59
2022/10/20 05:31:25;;;;;;;2.30;1.85;;;;;;;1.94;100.00;98721.48;1752482;81;21026;-57
2022/10/20 05:33:55;;;;;;;4.85;2.10;;;;;;;1.97;100.00;98728.98;1752348;81;21564;-59
2022/10/20 05:36:26;;;;;;;2.85;1.98;;;;;;;1.99;100.00;98733.54;1743036;81;21606;-59
2022/10/20 05:38:59;;;;;;;3.50;2.02;;;;;;;2.02;100.00;98734.44;1701934;84;21021;-59
2022/10/20 05:41:34;;;;;;;2.90;2.10;;;;;;;2.06;100.00;98745.67;1721857;81;21097;-59
2022/10/20 05:44:09;;;;;;;2.67;1.90;;;;;;;2.13;100.00;98746.11;1730747;82;20984;-60
2022/10/20 05:46:43;;;;;;;5.42;2.00;;;;;;;2.16;100.00;98743.04;1696756;84;21040;-59
2022/10/20 05:49:16;;;;;;;2.42;1.77;;;;;;;2.20;100.00;98750.31;1725226;81;21051;-58
2022/10/20 05:51:45;;;;;;;5.17;2.30;;;;;;;2.25;100.00;98745.19;1747905;80;20980;-58
2022/10/20 05:54:12;;;;;;;2.85;1.90;;;;;;;2.33;100.00;98750.17;1740280;82;21147;-58
2022/10/20 05:56:41;;;;;;;3.42;1.87;;;;;;;2.41;99.76;98760.47;1706959;83;21051;-57
2022/10/20 05:59:10;;;;;;;3.95;2.25;;;;;;;2.44;99.81;98755.26;1703844;83;20996;-59
2022/10/20 06:01:46;;;;;;;3.72;2.00;;;;;;;2.49;99.46;98752.27;1728688;83;21001;-59
2022/10/20 06:04:16;;;;;;;4.65;2.20;;;;;;;2.55;99.47;98761.13;1731111;82;20885;-59
2022/10/20 06:06:48;;;;;;;2.87;1.92;;;;;;;2.61;99.08;98763.73;1731415;82;21774;-58
2022/10/20 06:09:18;;;;;;;3.77;2.05;;;;;;;2.69;98.99;98770.03;1736505;82;21035;-58
2022/10/20 06:11:50;;;;;;;3.52;1.90;;;;;;;2.77;98.80;98772.90;1739413;82;21031;-59
2022/10/20 06:14:21;;;;;;;3.40;2.10;;;;;;;2.83;98.21;98773.86;1736409;82;20988;-58
2022/10/20 06:16:52;;;;;;;3.33;2.42;;;;;;;2.82;97.73;98778.84;1736999;82;21491;-59
2022/10/20 06:19:19;;;;;;;3.30;2.00;;;;;;;2.80;97.14;98787.52;1720780;82;21937;-58
2022/10/20 06:21:48;;;;;;;4.05;2.20;;;;;;;2.76;96.86;98793.25;1722733;82;21069;-59
2022/10/20 06:24:17;;;;;;;5.00;2.47;;;;;;;2.75;97.04;98790.33;1722922;82;21086;-59
2022/10/20 06:26:47;;;;;;;5.35;2.55;;;;;;;2.76;96.88;98785.31;1718989;83;20991;-59
2022/10/20 06:29:16;;;;;;;4.40;2.22;;;;;;;2.76;96.73;98790.61;1694844;82;21177;-60
2022/10/20 06:31:48;;;;;;;3.42;2.45;;;;;;;2.81;96.86;98793.09;1689833;84;21907;-59
2022/10/20 06:34:19;;;;;;;6.30;2.37;;;;;;;2.83;96.73;98787.09;1691443;84;20957;-65
2022/10/20 06:36:47;;;;;;;3.90;2.70;;;;;;;2.88;96.73;98799.12;1719430;83;21434;-58
2022/10/20 06:39:18;;;;;;;3.67;2.30;;;;;;;2.93;96.57;98795.30;1691289;84;21079;-62
2022/10/20 06:41:49;;;;;;;4.10;2.00;;;;;;;3.01;96.58;98801.12;1736664;82;21095;-57
2022/10/20 06:44:24;;;;;;;3.33;2.35;;;;;;;3.09;96.24;98794.69;1730655;82;21114;-58
2022/10/20 06:46:54;;;;;;;4.70;2.30;;;;;;;3.14;95.62;98808.07;1717954;82;21048;-59
2022/10/20 06:49:20;;;;;;;4.12;1.87;;;;;;;3.19;95.12;98809.53;1708827;84;21024;-59
2022/10/20 06:51:48;;;;;;;2.77;1.95;;;;;;;3.21;94.87;98818.88;1708492;83;21538;-58
2022/10/20 06:54:15;;;;;;;3.77;1.82;;;;;;;3.26;94.79;98810.27;1739117;80;21079;-60
2022/10/20 06:56:42;;;;;;;2.75;1.72;;;;;;;3.32;94.11;98811.49;1734939;82;21453;-59
2022/10/20 06:59:09;;;;;;;3.80;2.35;;;;;;;3.34;93.67;98817.37;1726973;82;20966;-60
2022/10/20 07:01:37;;;;;;;6.33;2.90;;;;;;;3.37;93.97;98825.38;1732010;82;21090;-58
2022/10/20 07:04:14;;;;;;;5.58;2.33;;;;;;;3.44;93.69;98824.78;1708109;82;21070;-60
2022/10/20 07:06:47;;;;;;;3.65;2.40;;;;;;;3.53;93.74;98818.16;1753599;80;21039;-59
2022/10/20 07:09:20;;;;;;;2.70;1.90;;;;;;;3.59;93.43;98831.82;1730617;82;21780;-59
2022/10/20 07:11:51;;;;;;;3.80;1.82;;;;;;;3.70;92.80;98831.58;1737421;80;21412;-59
2022/10/20 07:14:20;;;;;;;7.35;3.08;;;;;;;3.79;92.22;98831.01;1755848;80;21539;-59
2022/10/20 07:16:48;;;;;;;6.15;3.40;;;;;;;3.89;90.81;98829.95;1773586;80;21089;-60
2022/10/20 07:19:15;;;;;;;6.97;3.98;;;;;;;3.96;91.20;98830.66;1755372;80;21060;-59
2022/10/20 07:21:43;;;;;;;6.97;4.17;;;;;;;4.02;89.85;98831.09;1749152;80;21386;-59
2022/10/20 07:24:10;;;;;;;3.85;2.58;;;;;;;4.14;90.33;98833.22;1749377;80;21075;-60
2022/10/20 07:26:38;;;;;;;4.45;2.65;;;;;;;4.29;89.57;98831.97;1720423;82;21429;-61
2022/10/20 07:29:09;;;;;;;3.00;1.70;;;;;;;4.48;88.75;98833.48;1718092;83;21153;-59
2022/10/20 07:31:43;;;;;;;4.72;2.10;;;;;;;4.62;87.06;98837.52;1639118;85;21515;-58
2022/10/20 07:34:11;;;;;;;3.87;2.65;;;;;;;4.67;85.45;98841.10;1739131;80;21908;-58
2022/10/20 07:36:40;;;;;;;3.62;2.45;;;;;;;4.70;85.77;98837.17;1749639;80;21062;-59
2022/10/20 07:39:07;;;;;;;3.42;1.90;;;;;;;4.78;86.01;98844.26;1730788;80;21075;-58
2022/10/20 07:41:35;;;;;;;2.40;1.90;;;;;;;4.87;83.96;98836.77;1761251;80;21111;-58
2022/10/20 07:44:03;;;;;;;5.15;2.90;;;;;;;4.92;83.71;98838.72;1720680;82;21048;-58
2022/10/20 07:46:31;;;;;;;2.30;1.42;;;;;;;5.02;83.05;98842.89;1750419;80;21726;-58
2022/10/20 07:48:59;;;;;;;4.03;2.60;;;;;;;5.15;80.07;98840.00;1688584;84;21017;-59
2022/10/20 07:51:29;;;;;;;1.82;1.30;;;;;;;5.26;81.56;98834.65;1695947;83;21058;-59
2022/10/20 07:54:02;;;;;;;2.83;1.20;;;;;;;5.37;79.98;98833.80;1703520;83;21087;-59
2022/10/20 07:56:33;;;;;;;2.30;1.55;;;;;;;5.42;78.28;98843.20;1721652;83;20904;-61
2022/10/20 07:59:01;;;;;;;3.05;1.50;;;;;;;5.43;77.93;98844.02;1733200;82;21700;-60
2022/10/20 08:01:28;;;;;;;3.08;1.32;;;;;;;5.46;77.86;98836.36;1757961;81;20941;-61
2022/10/20 08:03:55;;;;;;;5.22;1.20;;;;;;;5.54;77.70;98841.31;1755409;81;21460;-60
2022/10/20 08:06:23;;;;;;;2.75;1.30;;;;;;;5.64;78.15;98845.20;1754893;81;21034;-60
2022/10/20 08:08:52;;;;;;;5.03;1.27;;;;;;;5.75;77.04;98844.33;1744288;81;20995;-62
2022/10/20 08:11:20;;;;;;;3.17;1.37;;;;;;;5.81;75.77;98842.87;1753611;81;21215;-63
2022/10/20 08:13:47;;;;;;;2.00;1.10;;;;;;;5.92;75.91;98841.22;1752621;81;21075;-59
2022/10/20 08:16:16;;;;;;;2.42;1.17;;;;;;;6.09;75.99;98845.53;1749392;80;21026;-60
2022/10/20 08:18:43;;;;;;;2.83;1.80;;;;;;;6.30;75.77;98840.02;1752051;81;20980;-59
2022/10/20 08:21:16;;;;;;;1.75;1.27;;;;;;;6.46;74.08;98849.84;1720093;82;21160;-61
2022/10/20 08:23:45;;;;;;;3.80;2.60;;;;;;;6.49;72.93;98840.05;1689247;84;21318;-59
2022/10/20 08:26:14;;;;;;;1.67;1.02;;;;;;;6.53;73.00;98849.16;1685994;83;21146;-59
2022/10/20 08:28:41;;;;;;;3.45;1.00;;;;;;;6.56;71.99;98853.19;1726261;82;20934;-60
2022/10/20 08:31:09;;;;;;;1.65;0.93;;;;;;;6.53;70.18;98851.00;1731648;82;21464;-58
2022/10/20 08:33:38;;;;;;;1.17;0.80;;;;;;;6.39;69.90;98854.52;1675711;84;21439;-59
2022/10/20 08:36:08;;;;;;;1.60;1.00;;;;;;;6.28;70.32;98847.95;1704654;83;21923;-58
2022/10/20 08:38:36;;;;;;;3.20;0.93;;;;;;;6.26;71.06;98857.52;1692002;84;21031;-60
2022/10/20 08:41:21;;;;;;;3.35;1.00;;;;;;;6.31;70.52;98850.95;1690513;84;21099;-59
2022/10/20 08:43:51;;;;;;;2.27;1.10;;;;;;;6.33;70.67;98851.51;1695031;84;21122;-59
2022/10/20 08:46:31;;;;;;;2.55;1.20;;;;;;;6.35;70.48;98852.07;1697998;84;21082;-61
2022/10/20 08:48:58;;;;;;;2.05;0.72;;;;;;;6.37;69.70;98853.96;1720138;82;21129;-60
2022/10/20 08:51:37;;;;;;;1.30;0.80;;;;;;;6.39;69.26;98856.37;1717614;82;21502;-60
2022/10/20 08:54:12;;;;;;;5.20;0.93;;;;;;;6.43;67.80;98850.31;1710700;83;21022;-58
2022/10/20 08:56:39;;;;;;;2.27;0.98;;;;;;;6.49;67.57;98865.33;1700214;83;21108;-59
2022/10/20 08:59:34;;;;;;;1.42;0.90;;;;;;;6.55;67.39;98861.69;1692191;84;21491;-58
2022/10/20 09:02:02;;;;;;;2.00;0.80;;;;;;;6.64;67.71;98864.77;1699603;84;21135;-59
2022/10/20 09:04:39;;;;;;;1.98;1.15;;;;;;;6.72;67.92;98871.80;1698945;84;21755;-59
2022/10/20 09:07:24;;;;;;;3.17;1.25;;;;;;;6.76;68.72;98871.59;1696269;84;20924;-61
2022/10/20 09:09:52;;;;;;;2.08;1.10;;;;;;;6.82;69.22;98867.16;1696241;84;21435;-59
2022/10/20 09:12:20;;;;;;;2.65;1.25;;;;;;;6.80;69.63;98880.72;1682702;84;21054;-60
2022/10/20 09:14:46;;;;;;;2.45;1.27;;;;;;;6.79;70.18;98876.44;1700058;83;21075;-59
2022/10/20 09:17:17;;;;;;;1.77;1.30;;;;;;;6.87;70.58;98880.55;1731281;81;21573;-59
2022/10/20 09:19:51;;;;;;;1.72;1.27;;;;;;;7.08;69.19;98881.63;1741835;82;21068;-58
2022/10/20 09:22:21;;;;;;;1.75;1.20;;;;;;;7.24;66.85;98875.44;1746542;82;21058;-58
2022/10/20 09:24:50;;;;;;;3.52;0.90;;;;;;;7.22;64.53;98878.36;1762718;81;21003;-58
2022/10/20 09:27:30;;;;;;;5.00;1.52;;;;;;;7.15;64.87;98875.08;1726809;83;21821;-60
2022/10/20 09:29:58;;;;;;;3.87;1.92;;;;;;;7.13;65.01;98877.19;1748559;82;21591;-58
2022/10/20 09:32:33;;;;;;;1.62;1.30;;;;;;;7.08;66.29;98881.63;1708390;82;21421;-58
2022/10/20 09:35:19;;;;;;;2.77;1.57;;;;;;;7.04;66.27;98881.84;1724488;82;21078;-58
2022/10/20 09:38:22;;;;;;;2.27;1.60;;;;;;;6.96;66.93;98871.08;1703614;82;20960;-59
2022/10/20 09:41:15;;;;;;;2.47;1.30;;;;;;;6.93;67.38;98878.73;1731687;82;21962;-59
2022/10/20 09:44:05;;;;;;;4.60;1.32;;;;;;;6.94;65.23;98879.03;1728073;82;20991;-60
2022/10/20 09:46:41;;;;;;;2.72;1.20;;;;;;;6.96;64.94;98875.59;1703820;83;21424;-59
2022/10/20 09:49:08;;;;;;;3.30;1.30;;;;;;;6.83;65.81;98877.55;1693292;84;21070;-59
2022/10/20 09:51:35;;;;;;;2.45;1.40;;;;;;;6.76;66.94;98884.09;1720836;83;21048;-59
2022/10/20 09:54:09;;;;;;;2.60;1.35;;;;;;;6.79;66.97;98885.75;1719354;83;21786;-59
2022/10/20 09:56:37;;;;;;;5.35;1.60;;;;;;;6.95;66.97;98881.99;1689343;84;21131;-59
2022/10/20 09:59:23;;;;;;;1.37;0.90;;;;;;;7.05;67.19;98887.44;1714967;83;20910;-59
2022/10/20 10:01:59;;;;;;;1.75;1.00;;;;;;;6.98;65.00;98885.47;1733991;82;21047;-60
2022/10/20 10:04:36;;;;;;;1.55;1.00;;;;;;;6.87;64.81;98893.86;1737851;82;20900;-59
2022/10/20 10:07:07;;;;;;;1.98;1.20;;;;;;;6.85;64.21;98887.42;1741581;82;21077;-59
2022/10/20 10:09:36;;;;;;;1.95;1.10;;;;;;;7.02;65.23;98887.95;1741681;82;21305;-60
2022/10/20 10:12:15;;;;;;;1.60;0.90;;;;;;;7.23;63.20;98889.28;1741299;82;21059;-59
2022/10/20 10:14:57;;;;;;;8.23;1.40;;;;;;;7.44;64.97;98883.70;1740338;82;20932;-59
2022/10/20 10:17:30;;;;;;;1.98;1.15;;;;;;;7.45;62.78;98886.63;1736659;82;21422;-58
2022/10/20 10:20:00;;;;;;;2.25;1.00;;;;;;;7.28;62.92;98890.69;1723450;82;21138;-60
2022/10/20 10:22:28;;;;;;;3.37;1.07;;;;;;;7.09;62.16;98885.91;1732730;82;20996;-58
2022/10/20 10:24:55;;;;;;;1.80;1.17;;;;;;;6.99;62.18;98883.11;1737169;82;20997;-60
2022/10/20 10:27:27;;;;;;;1.72;1.00;;;;;;;6.95;63.13;98876.66;1737113;82;20905;-60
2022/10/20 10:29:56;;;;;;;1.60;0.98;;;;;;;6.94;63.75;98885.69;1736838;82;21510;-61
2022/10/20 10:32:28;;;;;;;1.87;0.88;;;;;;;6.97;64.01;98889.20;1721345;82;21555;-58
2022/10/20 10:35:32;;;;;;;2.10;1.00;;;;;;;7.11;63.95;98886.47;1725208;82;21075;-60
2022/10/20 10:37:59;;;;;;;2.15;1.10;;;;;;;7.41;63.02;98881.53;1727597;82;20941;-61
2022/10/20 10:41:00;;;;;;;2.02;0.98;;;;;;;7.71;62.63;98873.87;1727090;82;21092;-61
2022/10/20 10:43:38;;;;;;;2.87;1.47;;;;;;;7.82;62.39;98888.92;1715900;82;21084;-59
2022/10/20 10:46:14;;;;;;;1.72;1.17;;;;;;;7.76;60.66;98889.94;1724608;82;20949;-60
2022/10/20 10:49:04;;;;;;;4.75;0.98;;;;;;;7.74;60.93;98886.72;1717397;81;21269;-59
2022/10/20 10:51:56;;;;;;;1.87;0.88;;;;;;;7.79;60.38;98880.11;1737592;82;20985;-58
2022/10/20 10:54:31;;;;;;;2.92;1.00;;;;;;;7.98;60.92;98869.38;1728489;82;21111;-59
2022/10/20 10:57:31;;;;;;;3.17;0.88;;;;;;;8.22;58.95;98881.33;1725250;82;21546;-59
2022/10/20 11:00:01;;;;;;;3.20;0.80;;;;;;;8.18;58.55;98878.89;1709838;84;21152;-59
2022/10/20 11:02:56;;;;;;;1.20;0.85;;;;;;;8.21;59.21;98873.06;1710207;83;20971;-59
2022/10/20 11:05:34;;;;;;;1.98;0.70;;;;;;;8.09;58.19;98872.94;1709532;83;21015;-59
2022/10/20 11:08:23;;;;;;;1.65;0.80;;;;;;;7.88;58.50;98886.61;1709456;83;21047;-59
2022/10/20 11:11:26;;;;;;;1.90;0.90;;;;;;;7.83;56.87;98882.55;1709595;83;21153;-60
2022/10/20 11:14:28;;;;;;;1.47;1.12;;;;;;;7.87;56.61;98879.64;1709647;84;21319;-59
2022/10/20 11:17:06;;;;;;;6.85;5.00;;;;;;;7.93;56.56;98875.99;1710177;83;20995;-57
2022/10/20 11:20:01;;;;;;;3.00;1.60;;;;;;;7.80;56.51;98867.03;1695311;84;20956;-59
2022/10/20 11:22:46;;;;;;;9.13;4.95;;;;;;;7.68;57.17;98876.25;1710422;83;21467;-57
2022/10/20 11:25:43;;;;;;;6.83;4.22;;;;;;;7.74;57.46;98868.05;1710921;83;20995;-59
2022/10/20 11:28:43;;;;;;;3.95;2.58;;;;;;;7.89;57.39;98859.41;1711039;84;21786;-59
2022/10/20 11:31:06;;;;;;;6.22;4.08;;;;;;;7.80;56.78;98855.03;1710396;83;21554;-59
2022/10/20 11:33:44;;;;;;;8.88;5.25;;;;;;;7.62;57.47;98865.23;1710809;83;21502;-59
2022/10/20 11:36:16;;;;;;;6.75;3.50;;;;;;;7.56;58.08;98869.70;1710967;83;20921;-58
2022/10/20 11:38:51;;;;;;;6.05;1.72;;;;;;;7.73;57.78;98858.95;1711385;84;21015;-61
2022/10/20 11:41:40;;;;;;;6.75;3.75;;;;;;;8.03;58.07;98855.28;1710400;83;21346;-59
2022/10/20 11:44:40;;;;;;;6.60;2.50;;;;;;;8.44;56.25;98857.25;1706804;84;20893;-59
2022/10/20 11:47:17;;;;;;;5.17;2.70;;;;;;;8.64;56.04;98843.26;1711023;84;21404;-59
2022/10/20 11:49:43;;;;;;;3.92;1.70;;;;;;;8.66;56.22;98854.48;1716538;83;21015;-59
2022/10/20 11:52:33;;;;;;;4.20;1.82;;;;;;;8.53;56.25;98857.58;1718472;83;21384;-59
2022/10/20 11:55:10;;;;;;;3.62;2.40;;;;;;;8.27;56.39;98854.45;1718705;83;21251;-59
2022/10/20 11:57:52;;;;;;;4.30;2.02;;;;;;;8.14;56.98;98856.97;1718018;83;21017;-60
2022/10/20 12:00:40;;;;;;;5.70;2.27;;;;;;;8.40;57.55;98853.49;1721529;82;21437;-59
2022/10/20 12:03:46;;;;;;;4.22;1.67;;;;;;;8.64;55.13;98853.94;1759072;81;20986;-60
2022/10/20 12:06:35;;;;;;;8.40;4.40;;;;;;;8.48;55.00;98860.23;1759528;81;20912;-60
2022/10/20 12:09:15;;;;;;;7.12;3.05;;;;;;;8.14;55.59;98856.45;1747474;81;21497;-60